Tiempo atmosférico en la estación meteorológica de Tarazona, Zaragoza (475 m.)



Fecha
DESCASC
Temp. máxima en grados centígrados (hora)
DESCASC
Temp. mínima en grados centígrados (hora)
DESCASC
Temp. media en grados centígrados
DESCASC
Racha de viento máxima en m/sg (hora)
DESCASC
Velocidad máxima media en intervalos de 10 minutos(hora)
DESCASC
Precipitaciones diarias en mm
DESCASC
Precipitaciones de 00:00 a 06:00 en mm
DESCASC
Precipitaciones de 06:00 a 12:00 en mm
DESCASC
Precipitaciones de 12:00 a 18:00 en mm
DESCASC
Precipitaciones de 18:00 a 24:00 en mm
DESCASC
11-12-2019 11.8 (06:30) 3.9 (03:20) 7.9 11.11 (23:20) 5.83 (23:20) 0.6 0 0.4 0.2 0
08-12-2019 11.4 (12:10) 1.6 (00:00) 6.5 5 (01:50) 3.06 (01:50) 1.8 0 0 1.4 0.4
07-12-2019 13.5 (16:20) 2 (00:00) 7.8 4.44 (14:30) 2.78 (00:30) 0 0 0 0 0
06-12-2019 12.7 (15:20) 3.1 (00:00) 7.9 3.89 (13:00) 3.33 (21:30) 0 0 0 0 0
05-12-2019 12.9 (15:40) 5.3 (00:00) 9.1 8.61 (03:20) 4.44 (03:20) 0.2 0.2 0 0 0
04-12-2019 11.1 (14:30) 2.6 (01:00) 6.9 10 (21:40) 5.28 (22:00) 0 0 0 0 0
03-12-2019 6.9 (14:50) 1.6 (00:00) 4.3 8.61 (08:30) 4.72 (08:20) 0 0 0 0 0
02-12-2019 10.4 (12:30) 4.4 (00:00) 7.4 13.33 (11:20) 6.39 (11:50) 0 0 0 0 0
01-12-2019 10.9 (12:20) 4.5 (00:00) 7.7 7.78 (01:40) 3.33 (05:40) 0 0 0 0 0
30-11-2019 17.6 (14:50) 7.1 (00:00) 12.4 11.11 (19:30) 6.11 (15:20) 1.8 0.2 0 0 1.6
29-11-2019 15.1 (15:50) 7.6 (00:00) 11.4 10 (02:10) 5.28 (02:50) 0 0 0 0 0
28-11-2019 16 (15:40) 11.4 (03:50) 13.7 15.83 (11:40) 7.22 (11:40) 0 0 0 0 0
27-11-2019 14.9 (14:40) 11.1 (00:00) 13 15 (03:00) 7.78 (03:40) 0 0 0 0 0
26-11-2019 17.3 (12:30) 8.7 (00:00) 13 11.94 (01:40) 6.39 (01:40) 0 0 0 0 0
25-11-2019 13.6 (16:00) 5.3 (07:50) 9.5 9.72 (22:40) 5.83 (04:20) 0.2 0.2 0 0 0
24-11-2019 12.9 (14:30) 4.8 (00:00) 8.8 12.5 (17:00) 6.67 (17:10) 0 0 0 0 0
23-11-2019 13.2 (14:40) 6.8 (00:00) 10 17.5 (01:30) 8.61 (12:10) 0.4 0.2 0.2 0 0
22-11-2019 11.2 (23:59) 4.4 (00:00) 7.8 14.44 (09:40) 7.78 (09:40) 3.6 0 0 1.2 2.4
21-11-2019 12.7 (15:00) 2.2 (00:00) 7.4 8.89 (12:00) 4.17 (14:30) 0 0 0 0 0
20-11-2019 9.3 (15:40) -0.1 (08:20) 4.6 4.44 (17:40) 2.5 (15:50) 0.6 0 0 0 0.6
19-11-2019 11.8 (13:10) 2.2 (00:00) 7 8.33 (10:50) 4.17 (10:50) 0 0 0 0 0
18-11-2019 8.7 (10:50) 4.7 (00:00) 6.7 12.22 (10:30) 6.39 (10:30) 0 0 0 0 0
17-11-2019 10.9 (12:50) 4.4 (00:00) 7.6 13.89 (11:10) 6.94 (11:10) 0.2 0 0 0.2 0
16-11-2019 8.7 (13:40) 1.1 (00:00) 4.9 10.28 (15:30) 5.28 (15:30) 0 0 0 0 0
15-11-2019 10.2 (12:20) 3 (00:00) 6.6 12.22 (13:20) 6.94 (13:20) 0 0 0 0 0
14-11-2019 12.3 (00:00) 4.2 (00:00) 8.3 15.28 (14:00) 8.61 (06:10) 5 1.2 3.8 0 0
13-11-2019 13.8 (14:40) 6.1 (00:00) 10 18.06 (23:50) 8.06 (23:30) 5.4 3.4 2 0 0
12-11-2019 13.7 (14:20) 5.7 (00:00) 9.7 10 (19:20) 6.11 (11:50) 0.8 0 0 0 0.8

Gráficas

Temp. máximas Temp. mínimas Temp. medias Precipitaciones Rachas de viento máximas Velocidades máximas media en intervalos de 10 minutos

Datos horarios

Fecha y hora oficial Temperatura (ºC) Velocidad del viento (km/h) Dirección del viento Racha (km/h) Dirección de racha Precipitación (mm) Presión (hPa) Tendencia (hPa) Humedad (%)
2019-12-11 23:00:00 7.1 15 Oeste 31 Oeste 0 -- -- 64
2019-12-11 22:00:00 7.2 15 Oeste 29 Oeste 0 -- -- 64
2019-12-11 21:00:00 7 12 Oeste 32 Sudoeste 0 -- -- 67
2019-12-11 20:00:00 6.4 12 Oeste 24 Oeste 0 -- -- 71
2019-12-11 19:00:00 4.6 10 Oeste 18 Oeste 0 -- -- 78
2019-12-11 18:00:00 7 0 Calma 14 Norte 0 -- -- 69
2019-12-11 17:00:00 9.1 10 Noroeste 29 Norte 0 -- -- 61
2019-12-11 16:00:00 10.6 11 Noroeste 32 Noroeste 0 -- -- 58
2019-12-11 15:00:00 9.3 14 Noroeste 36 Noroeste 0 -- -- 66
2019-12-11 14:00:00 9.2 20 Norte 35 Noroeste 0 -- -- 71
2019-12-11 13:00:00 9.1 11 Noroeste 22 Noroeste 0.2 -- -- 79
2019-12-11 12:00:00 7.6 5 Oeste 15 Oeste 0 -- -- 81
2019-12-11 11:00:00 6.5 5 Noroeste 12 Norte 0.2 -- -- 83
2019-12-11 10:00:00 6.6 5 Sudeste 15 Norte 0.2 -- -- 79
2019-12-11 09:00:00 7.1 6 Nordeste 14 Nordeste 0 -- -- 71
2019-12-11 08:00:00 10.4 6 Oeste 33 Oeste 0 -- -- 49
2019-12-11 07:00:00 11.3 17 Sudoeste 38 Sudoeste 0 -- -- 41
2019-12-11 06:00:00 11.5 14 Oeste 38 Oeste 0 -- -- 37
2019-12-11 05:00:00 10.6 15 Oeste 25 Oeste 0 -- -- 40
2019-12-11 04:00:00 4.9 5 Norte 10 Oeste 0 -- -- 82
2019-12-11 03:00:00 4.3 5 Oeste 12 Noroeste 0 -- -- 82
2019-12-11 02:00:00 4.5 0 Calma 12 Noroeste 0 -- -- 82
2019-12-11 01:00:00 4.8 0 Calma 6 Oeste 0 -- -- 84
2019-12-11 00:00:00 5.3 4 Oeste 10 Oeste 0 -- -- 85
2019-12-10 23:00:00 5.5 0 Calma 8 Sudeste 0 -- -- 86
2019-12-10 22:00:00 5.7 2 Sudeste 9 Sudoeste 0 -- -- 85
2019-12-10 21:00:00 6.1 4 Oeste 12 Oeste 0 -- -- 84
2019-12-10 20:00:00 6.6 2 Sur 8 Oeste 0 -- -- 81
2019-12-10 19:00:00 8 4 Sur 8 Sur 0 -- -- 76
2019-12-10 18:00:00 10.3 0 Calma 9 Este 0 -- -- 68
2019-12-10 17:00:00 12.7 4 Este 10 Nordeste 0 -- -- 59
2019-12-10 16:00:00 14.4 0 Calma 9 Nordeste 0 -- -- 50
2019-12-10 15:00:00 14.6 5 Este 10 Este 0 -- -- 52
2019-12-10 14:00:00 13.7 2 Este 10 Nordeste 0 -- -- 55
2019-12-10 13:00:00 12.2 6 Este 16 Este 0 -- -- 57
2019-12-10 12:00:00 11.9 6 Nordeste 14 Norte 0 -- -- 51
2019-12-10 11:00:00 10.4 8 Norte 18 Noroeste 0 -- -- 51
2019-12-10 10:00:00 7.1 2 Sur 17 Oeste 0 -- -- 67
2019-12-10 09:00:00 4.1 11 Oeste 18 Oeste 0 -- -- 77
2019-12-10 08:00:00 4.1 10 Oeste 19 Oeste 0 -- -- 78
2019-12-10 07:00:00 5 9 Oeste 19 Oeste 0 -- -- 77
2019-12-10 06:00:00 5.2 9 Oeste 18 Oeste 0 -- -- 76
2019-12-10 05:00:00 6 11 Oeste 21 Oeste 0 -- -- 74
2019-12-10 04:00:00 6.6 13 Oeste 28 Oeste 0 -- -- 72
2019-12-10 03:00:00 7.4 15 Oeste 26 Oeste 0 -- -- 69
2019-12-10 02:00:00 6.8 8 Noroeste 26 Noroeste 0 -- -- 72
2019-12-10 01:00:00 8.3 18 Noroeste 30 Noroeste 0 -- -- 66
2019-12-10 00:00:00 9 19 Noroeste 30 Noroeste 0 -- -- 63
2019-12-09 23:00:00 8.9 15 Noroeste 33 Noroeste 0 -- -- 64
2019-12-09 22:00:00 8.8 18 Noroeste 35 Noroeste 0 -- -- 67
2019-12-09 21:00:00 8.8 13 Noroeste 25 Norte 0 -- -- 72
2019-12-09 20:00:00 9.2 17 Noroeste 34 Noroeste 0 -- -- 70
2019-12-09 19:00:00 9.8 15 Noroeste 35 Noroeste 0 -- -- 70
2019-12-09 18:00:00 10.1 9 Noroeste 15 Norte 0 -- -- 70
2019-12-09 17:00:00 10.8 12 Noroeste 37 Norte 0 -- -- 63
2019-12-09 16:00:00 11.6 21 Noroeste 51 Noroeste 0 -- -- 56
2019-12-09 15:00:00 12.6 21 Noroeste 47 Noroeste 0 -- -- 56
2019-12-09 14:00:00 12.3 24 Noroeste 54 Noroeste 0 -- -- 56
2019-12-09 13:00:00 12.3 22 Noroeste 46 Noroeste 0 -- -- 56
2019-12-09 12:00:00 11.8 24 Noroeste 42 Oeste 0 -- -- 55
2019-12-09 11:00:00 10.6 15 Oeste 37 Oeste 0 -- -- 56
2019-12-09 10:00:00 8.5 16 Oeste 35 Oeste 0 -- -- 65
2019-12-09 09:00:00 5.2 11 Sudoeste 19 Sudoeste 0 -- -- 81
2019-12-09 08:00:00 4.8 6 Oeste 24 Noroeste 0 -- -- 82
2019-12-09 07:00:00 5.7 14 Noroeste 33 Noroeste 0 -- -- 84
2019-12-09 06:00:00 5.1 15 Norte 24 Nordeste 0 -- -- 85
2019-12-09 05:00:00 3.2 5 Sudeste 10 Nordeste 0 -- -- 90
2019-12-09 04:00:00 3.9 6 Sur 14 Sur 0 -- -- 91
2019-12-09 03:00:00 3.6 4 Sur 12 Sur 0 -- -- 94
2019-12-09 02:00:00 4.1 4 Sur 10 Sudoeste 0 -- -- 95
2019-12-09 01:00:00 4.7 3 Sudoeste 9 Sudoeste 0 -- -- 95
2019-12-09 00:00:00 6.5 4 Oeste 13 Este 0 -- -- 95
2019-12-08 23:00:00 7.1 0 Calma 6 Sudoeste 0.2 -- -- 94
2019-12-08 22:00:00 8.8 5 Sudoeste 12 Sur 0 -- -- 95
2019-12-08 21:00:00 8.4 5 Sur 13 Sur 0 -- -- 96
2019-12-08 20:00:00 8.3 8 Norte 13 Norte 0 -- -- 95
2019-12-08 19:00:00 8.3 4 Sudoeste 9 Sudoeste 0.2 -- -- 94
2019-12-08 18:00:00 8.7 0 Calma 6 Oeste 1 -- -- 91
2019-12-08 17:00:00 9.2 3 Oeste 10 Sudoeste 0.2 -- -- 86
2019-12-08 16:00:00 9.6 4 Sur 6 Sudoeste 0.2 -- -- 82
2019-12-08 15:00:00 9.8 4 Nordeste 10 Nordeste 0 -- -- 76
2019-12-08 14:00:00 10.2 6 Norte 13 Nordeste 0 -- -- 73
2019-12-08 13:00:00 10.7 6 Nordeste 13 Nordeste 0 -- -- 74
2019-12-08 12:00:00 11.1 6 Nordeste 12 Nordeste 0 -- -- 71
2019-12-08 11:00:00 9.4 6 Nordeste 9 Este 0 -- -- 77
2019-12-08 10:00:00 5.9 0 Calma 6 Sur 0 -- -- 92
2019-12-08 09:00:00 2.2 3 Sur 15 Oeste 0 -- -- 95
2019-12-08 08:00:00 1.9 6 Oeste 10 Oeste 0 -- -- 94
2019-12-08 07:00:00 2.2 3 Sudoeste 10 Oeste 0 -- -- 92
2019-12-08 06:00:00 3.2 3 Sudoeste 8 Oeste 0 -- -- 91
2019-12-08 05:00:00 3.8 4 Oeste 8 Noroeste 0 -- -- 91
2019-12-08 04:00:00 3.9 3 Sudoeste 8 Sudoeste 0 -- -- 87
2019-12-08 03:00:00 5.9 5 Sudoeste 17 Oeste 0 -- -- 83
2019-12-08 02:00:00 7 10 Oeste 18 Oeste 0 -- -- 81
2019-12-08 01:00:00 6.3 4 Oeste 12 Oeste 0 -- -- 84
2019-12-08 00:00:00 5.3 4 Sudoeste 10 Oeste 0 -- -- 89
2019-12-07 23:00:00 5.6 7 Oeste 13 Oeste 0 -- -- 86
2019-12-07 22:00:00 6 4 Oeste 12 Oeste 0 -- -- 86
2019-12-07 21:00:00 6.8 4 Oeste 9 Oeste 0 -- -- 81
2019-12-07 20:00:00 7.2 3 Oeste 10 Noroeste 0 -- -- 84
2019-12-07 19:00:00 7.7 6 Oeste 10 Noroeste 0 -- -- 81
2019-12-07 18:00:00 9.7 4 Oeste 7 Sudoeste 0 -- -- 74
2019-12-07 17:00:00 12.7 0 Calma 3 Sudoeste 0 -- -- 63
2019-12-07 16:00:00 13.4 2 Sudeste 10 Nordeste 0 -- -- 64
2019-12-07 15:00:00 12.6 5 Nordeste 16 Nordeste 0 -- -- 66
2019-12-07 14:00:00 12.7 5 Nordeste 11 Este 0 -- -- 66
2019-12-07 13:00:00 11.9 6 Nordeste 10 Nordeste 0 -- -- 68
2019-12-07 12:00:00 12.5 3 Sudeste 7 Nordeste 0 -- -- 63
2019-12-07 11:00:00 10.5 3 Sur 6 Sur 0 -- -- 71
2019-12-07 10:00:00 6 0 Calma 6 Oeste 0 -- -- 93
2019-12-07 09:00:00 2.3 3 Sur 11 Oeste 0 -- -- 95
2019-12-07 08:00:00 2.7 2 Oeste 7 Oeste 0 -- -- 93
2019-12-07 07:00:00 3.5 4 Sudoeste 14 Oeste 0 -- -- 93
2019-12-07 06:00:00 2.9 4 Sudoeste 10 Noroeste 0 -- -- 93
2019-12-07 05:00:00 3.6 5 Noroeste 9 Noroeste 0 -- -- 92
2019-12-07 04:00:00 3.8 4 Sudoeste 9 Oeste 0 -- -- 93
2019-12-07 03:00:00 3.4 2 Oeste 11 Oeste 0 -- -- 93
2019-12-07 02:00:00 3.6 3 Oeste 9 Oeste 0 -- -- 94
2019-12-07 01:00:00 3.4 2 Oeste 15 Oeste 0 -- -- 92
2019-12-07 00:00:00 3.7 5 Oeste 12 Oeste 0 -- -- 92
2019-12-06 23:00:00 4 4 Oeste 10 Oeste 0 -- -- 91
2019-12-06 22:00:00 4.4 3 Oeste 14 Oeste 0 -- -- 91
2019-12-06 21:00:00 4.6 3 Oeste 11 Oeste 0 -- -- 89
2019-12-06 20:00:00 5.6 7 Oeste 13 Oeste 0 -- -- 88
2019-12-06 19:00:00 6.4 4 Oeste 11 Oeste 0 -- -- 85
2019-12-06 18:00:00 9.3 4 Oeste 6 Oeste 0 -- -- 76
2019-12-06 17:00:00 11.5 2 Nordeste 10 Nordeste 0 -- -- 68
2019-12-06 16:00:00 12.4 5 Nordeste 11 Norte 0 -- -- 64
2019-12-06 15:00:00 12.4 5 Nordeste 13 Nordeste 0 -- -- 63
2019-12-06 14:00:00 11.8 6 Nordeste 13 Nordeste 0 -- -- 63
2019-12-06 13:00:00 11.2 8 Nordeste 14 Nordeste 0 -- -- 66
2019-12-06 12:00:00 10.7 5 Este 11 Nordeste 0 -- -- 65
2019-12-06 11:00:00 10 5 Este 8 Este 0 -- -- 68
2019-12-06 10:00:00 7 0 Calma 8 Sudoeste 0 -- -- 82
2019-12-06 09:00:00 4.6 4 Oeste 7 Noroeste 0 -- -- 85
2019-12-06 08:00:00 5.1 4 Oeste 10 Noroeste 0 -- -- 83
2019-12-06 07:00:00 4.7 4 Oeste 9 Oeste 0 -- -- 86
2019-12-06 06:00:00 3.6 0 Calma 10 Oeste 0 -- -- 87
2019-12-06 05:00:00 3.4 4 Oeste 10 Oeste 0 -- -- 87
2019-12-06 04:00:00 3.4 4 Oeste 10 Oeste 0 -- -- 87
2019-12-06 03:00:00 3.6 5 Oeste 10 Oeste 0 -- -- 87
2019-12-06 02:00:00 3.8 3 Sudoeste 9 Oeste 0 -- -- 86
2019-12-06 01:00:00 4.4 7 Oeste 12 Oeste 0 -- -- 84
2019-12-06 00:00:00 5.3 5 Oeste 12 Oeste 0 -- -- 82
2019-12-05 23:00:00 5.4 11 Oeste 14 Oeste 0 -- -- 82
2019-12-05 22:00:00 5.9 8 Oeste 14 Oeste 0 -- -- 81
2019-12-05 21:00:00 6.7 6 Oeste 14 Oeste 0 -- -- 77
2019-12-05 20:00:00 7.1 4 Oeste 12 Oeste 0 -- -- 76
2019-12-05 19:00:00 8.2 6 Oeste 12 Oeste 0 -- -- 73
2019-12-05 18:00:00 9.7 4 Oeste 13 Noroeste 0 -- -- 68
2019-12-05 17:00:00 11.6 10 Noroeste 20 Norte 0 -- -- 59
2019-12-05 16:00:00 12.3 13 Norte 23 Noroeste 0 -- -- 57
2019-12-05 15:00:00 12.1 13 Noroeste 26 Norte 0 -- -- 62
2019-12-05 14:00:00 11.4 11 Norte 20 Norte 0 -- -- 66
2019-12-05 13:00:00 10.3 3 Norte 9 Norte 0 -- -- 69
2019-12-05 12:00:00 9.2 0 Calma 7 Sudeste 0 -- -- 75
2019-12-05 11:00:00 8.3 0 Calma 6 Sudoeste 0 -- -- 79
2019-12-05 10:00:00 7.6 0 Calma 14 Norte 0 -- -- 80
2019-12-05 09:00:00 7.6 6 Noroeste 19 Noroeste 0 -- -- 77
2019-12-05 08:00:00 7.3 8 Norte 20 Norte 0 -- -- 82
2019-12-05 07:00:00 7.3 8 Norte 16 Norte 0 -- -- 83
2019-12-05 06:00:00 7.3 4 Nordeste 9 Norte 0 -- -- 80
2019-12-05 05:00:00 7.4 3 Nordeste 13 Nordeste 0 -- -- 79
2019-12-05 04:00:00 7.4 8 Norte 31 Norte 0 -- -- 79
2019-12-05 03:00:00 7.4 8 Norte 17 Norte 0 -- -- 83
2019-12-05 02:00:00 7.8 3 Nordeste 8 Noroeste 0.2 -- -- 81
2019-12-05 01:00:00 7.8 0 Calma 10 Oeste 0 -- -- 78
2019-12-05 00:00:00 8.1 5 Noroeste 19 Noroeste 0 -- -- 75
2019-12-04 23:00:00 8 6 Noroeste 27 Noroeste 0 -- -- 75
2019-12-04 22:00:00 7.9 19 Noroeste 36 Norte 0 -- -- 77
2019-12-04 21:00:00 7.7 12 Norte 29 Noroeste 0 -- -- 77
2019-12-04 20:00:00 8.6 10 Norte 17 Norte 0 -- -- 77
2019-12-04 19:00:00 8.8 2 Nordeste 9 Norte 0 -- -- 77
2019-12-04 18:00:00 9.8 3 Oeste 10 Oeste 0 -- -- 74
2019-12-04 17:00:00 10.8 10 Noroeste 18 Noroeste 0 -- -- 67
2019-12-04 16:00:00 11.1 5 Norte 12 Norte 0 -- -- 65
2019-12-04 15:00:00 11 5 Nordeste 18 Noroeste 0 -- -- 67
2019-12-04 14:00:00 10.4 6 Noroeste 12 Noroeste 0 -- -- 70
2019-12-04 13:00:00 9.4 6 Norte 19 Noroeste 0 -- -- 69
2019-12-04 12:00:00 9.5 7 Norte 14 Norte 0 -- -- 66
2019-12-04 11:00:00 7.8 0 Calma 5 Sur 0 -- -- 71
2019-12-04 10:00:00 6.2 3 Sudoeste 6 Sudoeste 0 -- -- 81
2019-12-04 09:00:00 4 2 Oeste 7 Oeste 0 -- -- 89
2019-12-04 08:00:00 3.5 0 Calma 4 Norte 0 -- -- 89
2019-12-04 07:00:00 3.3 0 Calma 6 Oeste 0 -- -- 89
2019-12-04 06:00:00 2.7 4 Sudoeste 8 Oeste 0 -- -- 89
2019-12-04 05:00:00 2.6 5 Oeste 7 Oeste 0 -- -- 88
2019-12-04 04:00:00 4 3 Noroeste 9 Noroeste 0 -- -- 85
2019-12-04 03:00:00 4.1 5 Oeste 13 Oeste 0 -- -- 84
2019-12-04 02:00:00 3.3 4 Oeste 9 Oeste 0 -- -- 89
2019-12-04 01:00:00 2.6 3 Oeste 8 Oeste 0 -- -- 87
2019-12-04 00:00:00 2.7 3 Oeste 6 Oeste 0 -- -- 88
2019-12-03 23:00:00 2.5 6 Oeste 13 Oeste 0 -- -- 87
2019-12-03 22:00:00 2.2 8 Oeste 14 Oeste 0 -- -- 87
2019-12-03 21:00:00 1.6 4 Oeste 12 Oeste 0 -- -- 89
2019-12-03 20:00:00 1.9 10 Oeste 12 Oeste 0 -- -- 88
2019-12-03 19:00:00 3.4 6 Oeste 8 Oeste 0 -- -- 81
2019-12-03 18:00:00 6 0 Calma 8 Nordeste 0 -- -- 73
2019-12-03 17:00:00 6.5 5 Nordeste 11 Norte 0 -- -- 69
2019-12-03 16:00:00 6.7 6 Norte 17 Nordeste 0 -- -- 68
2019-12-03 15:00:00 6.9 8 Norte 18 Norte 0 -- -- 68
2019-12-03 14:00:00 6.6 9 Norte 20 Norte 0 -- -- 68
2019-12-03 13:00:00 6.2 8 Norte 22 Norte 0 -- -- 71
2019-12-03 12:00:00 6.2 12 Norte 28 Norte 0 -- -- 69
2019-12-03 11:00:00 6.7 15 Norte 25 Norte 0 -- -- 68
2019-12-03 10:00:00 5.6 9 Noroeste 23 Norte 0 -- -- 70
2019-12-03 09:00:00 4.7 10 Noroeste 31 Norte 0 -- -- 75
2019-12-03 08:00:00 4.7 13 Noroeste 29 Noroeste 0 -- -- 76
2019-12-03 07:00:00 4.8 8 Noroeste 27 Norte 0 -- -- 75
2019-12-03 06:00:00 5.1 16 Noroeste 29 Norte 0 -- -- 73
2019-12-03 05:00:00 4.7 7 Noroeste 15 Noroeste 0 -- -- 75
2019-12-03 04:00:00 4.4 7 Noroeste 24 Norte 0 -- -- 81
2019-12-03 03:00:00 4.9 14 Noroeste 29 Noroeste 0 -- -- 79
2019-12-03 02:00:00 5.1 10 Noroeste 22 Noroeste 0 -- -- 77
2019-12-03 01:00:00 5 9 Oeste 14 Oeste 0 -- -- 73
2019-12-03 00:00:00 5.1 10 Oeste 26 Noroeste 0 -- -- 72
2019-12-02 23:00:00 4.8 10 Noroeste 21 Noroeste 0 -- -- 73
2019-12-02 22:00:00 4.9 12 Noroeste 30 Noroeste 0 -- -- 73
2019-12-02 21:00:00 5.6 12 Noroeste 34 Noroeste 0 -- -- 76
2019-12-02 20:00:00 6.3 16 Noroeste 32 Noroeste 0 -- -- 76
2019-12-02 19:00:00 7.3 17 Noroeste 32 Norte 0 -- -- 71
2019-12-02 18:00:00 8.1 14 Norte 35 Norte 0 -- -- 73
2019-12-02 17:00:00 8.8 14 Norte 32 Norte 0 -- -- 70
2019-12-02 16:00:00 9.3 17 Norte 34 Norte 0 -- -- 66
2019-12-02 15:00:00 9.9 21 Norte 35 Noroeste 0 -- -- 66
2019-12-02 14:00:00 10 20 Norte 38 Norte 0 -- -- 65
2019-12-02 13:00:00 10.1 18 Norte 39 Norte 0 -- -- 66
2019-12-02 12:00:00 10.1 18 Norte 48 Norte 0 -- -- 69
2019-12-02 11:00:00 9.9 19 Norte 40 Noroeste 0 -- -- 68
2019-12-02 10:00:00 8.8 19 Noroeste 36 Noroeste 0 -- -- 72
2019-12-02 09:00:00 7 10 Noroeste 18 Noroeste 0 -- -- 79
2019-12-02 08:00:00 6.8 10 Noroeste 20 Noroeste 0 -- -- 79
2019-12-02 07:00:00 7.1 9 Noroeste 18 Noroeste 0 -- -- 79
2019-12-02 06:00:00 7.2 10 Noroeste 23 Noroeste 0 -- -- 79
2019-12-02 05:00:00 7.1 8 Noroeste 20 Noroeste 0 -- -- 80
2019-12-02 04:00:00 6.8 8 Noroeste 17 Noroeste 0 -- -- 81
2019-12-02 03:00:00 6.7 10 Noroeste 17 Noroeste 0 -- -- 82
2019-12-02 02:00:00 6.5 10 Oeste 18 Oeste 0 -- -- 83
2019-12-02 01:00:00 6.4 10 Oeste 18 Oeste 0 -- -- 84
2019-12-02 00:00:00 5.5 9 Oeste 13 Oeste 0 -- -- 88
2019-12-01 23:00:00 5.5 7 Oeste 14 Oeste 0 -- -- 87
2019-12-01 22:00:00 5.2 7 Oeste 15 Oeste 0 -- -- 87
2019-12-01 21:00:00 4.8 5 Oeste 12 Oeste 0 -- -- 90
2019-12-01 20:00:00 5.5 4 Oeste 9 Oeste 0 -- -- 90
2019-12-01 19:00:00 6 5 Oeste 10 Oeste 0 -- -- 91
2019-12-01 18:00:00 6.8 5 Oeste 7 Oeste 0 -- -- 90
2019-12-01 17:00:00 9 0 Calma 8 Norte 0 -- -- 84
2019-12-01 16:00:00 10 5 Norte 10 Norte 0 -- -- 81
2019-12-01 15:00:00 10.1 5 Nordeste 14 Nordeste 0 -- -- 77
2019-12-01 14:00:00 9.8 8 Nordeste 16 Nordeste 0 -- -- 80
2019-12-01 13:00:00 10.1 10 Nordeste 17 Nordeste 0 -- -- 79
2019-12-01 12:00:00 10.4 8 Nordeste 14 Nordeste 0 -- -- 79
2019-12-01 11:00:00 8.4 3 Sudoeste 7 Sudoeste 0 -- -- 82
2019-12-01 10:00:00 4.8 0 Calma 4 Sudeste 0 -- -- 93
2019-12-01 09:00:00 4.6 0 Calma 10 Nordeste 0 -- -- 92
2019-12-01 08:00:00 4.7 3 Nordeste 13 Norte 0 -- -- 85
2019-12-01 07:00:00 5.3 3 Sudoeste 10 Sudoeste 0 -- -- 83
2019-12-01 06:00:00 6.4 5 Sudoeste 19 Sur 0 -- -- 79
2019-12-01 05:00:00 5.6 3 Nordeste 12 Oeste 0 -- -- 83
2019-12-01 04:00:00 6.6 5 Sudoeste 12 Oeste 0 -- -- 79
2019-12-01 03:00:00 7.2 9 Oeste 20 Oeste 0 -- -- 79
2019-12-01 02:00:00 8 9 Oeste 28 Sudoeste 0 -- -- 77
2019-12-01 01:00:00 8.8 5 Oeste 13 Nordeste 0 -- -- 76
2019-12-01 00:00:00 9.4 9 Oeste 27 Sudoeste 0.2 -- -- 77
2019-11-30 23:00:00 9.6 13 Oeste 38 Sudoeste 0 -- -- 78
2019-11-30 22:00:00 9.2 6 Nordeste 21 Nordeste 0 -- -- 94
2019-11-30 21:00:00 9.7 4 Sur 14 Norte 0.2 -- -- 93
2019-11-30 20:00:00 10 10 Norte 40 Norte 0.8 -- -- 91
2019-11-30 19:00:00 12.1 13 Norte 32 Norte 0.4 -- -- 86
2019-11-30 18:00:00 16 12 Sur 33 Sur 0 -- -- 63
2019-11-30 17:00:00 16.4 16 Sur 36 Sur 0 -- -- 62
2019-11-30 16:00:00 17.1 17 Sur 37 Sudoeste 0 -- -- 60
2019-11-30 15:00:00 17.5 21 Sudoeste 33 Sudoeste 0 -- -- 60
2019-11-30 14:00:00 15.6 4 Norte 13 Nordeste 0 -- -- 71
2019-11-30 13:00:00 14.3 6 Norte 13 Nordeste 0 -- -- 77
2019-11-30 12:00:00 13 6 Este 16 Este 0 -- -- 79
2019-11-30 11:00:00 11.2 4 Sudoeste 18 Nordeste 0 -- -- 86
2019-11-30 10:00:00 10.1 3 Oeste 15 Oeste 0 -- -- 94
2019-11-30 09:00:00 7.5 2 Noroeste 9 Este 0 -- -- 96
2019-11-30 08:00:00 7.7 3 Este 11 Oeste 0 -- -- 95
2019-11-30 07:00:00 7.7 4 Oeste 10 Sudeste 0 -- -- 95
2019-11-30 06:00:00 8.2 3 Oeste 13 Noroeste 0 -- -- 93
2019-11-30 05:00:00 9.2 4 Sudeste 15 Oeste 0.2 -- -- 92
2019-11-30 04:00:00 8.5 2 Sudoeste 12 Oeste 0 -- -- 91
2019-11-30 03:00:00 8 5 Oeste 12 Oeste 0 -- -- 92
2019-11-30 02:00:00 7.2 4 Oeste 9 Noroeste 0 -- -- 92
2019-11-30 01:00:00 7.3 4 Oeste 11 Oeste 0 -- -- 91
2019-11-30 00:00:00 7.7 2 Oeste 11 Oeste 0 -- -- 92
2019-11-29 23:00:00 7.7 3 Oeste 8 Oeste 0 -- -- 91
2019-11-29 22:00:00 7.7 3 Sudoeste 11 Oeste 0 -- -- 90
2019-11-29 21:00:00 8.3 2 Oeste 11 Oeste 0 -- -- 89
2019-11-29 20:00:00 8.6 7 Oeste 11 Oeste 0 -- -- 88
2019-11-29 19:00:00 9.5 5 Oeste 12 Oeste 0 -- -- 85
2019-11-29 18:00:00 11.9 3 Oeste 5 Oeste 0 -- -- 77
2019-11-29 17:00:00 14.3 2 Norte 9 Nordeste 0 -- -- 68
2019-11-29 16:00:00 15.1 4 Nordeste 12 Nordeste 0 -- -- 64
2019-11-29 15:00:00 14.3 5 Norte 16 Norte 0 -- -- 67
2019-11-29 14:00:00 14.5 5 Norte 15 Norte 0 -- -- 69
2019-11-29 13:00:00 14 6 Norte 16 Norte 0 -- -- 71
2019-11-29 12:00:00 13.4 7 Norte 17 Noroeste 0 -- -- 75
2019-11-29 11:00:00 12.7 10 Norte 20 Noroeste 0 -- -- 80
2019-11-29 10:00:00 12.4 8 Norte 19 Noroeste 0 -- -- 79
2019-11-29 09:00:00 11.5 6 Noroeste 21 Norte 0 -- -- 89
2019-11-29 08:00:00 11.1 2 Sudeste 10 Norte 0 -- -- 83
2019-11-29 07:00:00 11.2 7 Noroeste 11 Oeste 0 -- -- 83
2019-11-29 06:00:00 10.5 2 Oeste 9 Este 0 -- -- 84
2019-11-29 05:00:00 11.7 3 Norte 14 Noroeste 0 -- -- 79
2019-11-29 04:00:00 13.7 14 Noroeste 30 Noroeste 0 -- -- 73
2019-11-29 03:00:00 13.9 17 Oeste 36 Oeste 0 -- -- 72
2019-11-29 02:00:00 14 17 Oeste 32 Oeste 0 -- -- 70
2019-11-29 01:00:00 14 13 Oeste 29 Oeste 0 -- -- 70
2019-11-29 00:00:00 13.6 13 Oeste 34 Oeste 0 -- -- 71
2019-11-28 23:00:00 13.5 18 Oeste 37 Oeste 0 -- -- 71
2019-11-28 22:00:00 13.1 15 Oeste 51 Oeste 0 -- -- 72
2019-11-28 21:00:00 13.5 17 Oeste 37 Sudoeste 0 -- -- 68
2019-11-28 20:00:00 13.9 17 Oeste 34 Oeste 0 -- -- 64
2019-11-28 19:00:00 14.3 12 Oeste 33 Sudoeste 0 -- -- 61
2019-11-28 18:00:00 14.6 9 Oeste 31 Sudoeste 0 -- -- 61
2019-11-28 17:00:00 14.9 14 Oeste 41 Oeste 0 -- -- 62
2019-11-28 16:00:00 15.8 15 Oeste 37 Sudoeste 0 -- -- 61
2019-11-28 15:00:00 15.5 14 Oeste 45 Oeste 0 -- -- 61
2019-11-28 14:00:00 15.2 21 Oeste 44 Oeste 0 -- -- 63
2019-11-28 13:00:00 15.3 17 Oeste 49 Sudoeste 0 -- -- 64
2019-11-28 12:00:00 15.1 23 Oeste 57 Oeste 0 -- -- 64
2019-11-28 11:00:00 14.5 22 Oeste 50 Oeste 0 -- -- 66
2019-11-28 10:00:00 13.9 22 Oeste 48 Oeste 0 -- -- 66
2019-11-28 09:00:00 12.5 17 Oeste 49 Oeste 0 -- -- 71
2019-11-28 08:00:00 11.9 18 Oeste 40 Oeste 0 -- -- 72
2019-11-28 07:00:00 11.9 18 Oeste 40 Oeste 0 -- -- 70
2019-11-28 06:00:00 11.8 14 Oeste 37 Oeste 0 -- -- 71
2019-11-28 05:00:00 11.4 12 Oeste 29 Oeste 0 -- -- 74
2019-11-28 04:00:00 11.4 10 Oeste 28 Noroeste 0 -- -- 73
2019-11-28 03:00:00 11.9 13 Oeste 32 Oeste 0 -- -- 70
2019-11-28 02:00:00 11.6 13 Oeste 30 Oeste 0 -- -- 71
2019-11-28 01:00:00 12 13 Noroeste 36 Oeste 0 -- -- 69
2019-11-28 00:00:00 12.4 20 Oeste 37 Oeste 0 -- -- 65
2019-11-27 23:00:00 12 9 Oeste 35 Noroeste 0 -- -- 65
2019-11-27 22:00:00 12.7 19 Noroeste 40 Oeste 0 -- -- 64
2019-11-27 21:00:00 12.9 16 Oeste 48 Sudoeste 0 -- -- 64
2019-11-27 20:00:00 13 15 Oeste 34 Oeste 0 -- -- 64
2019-11-27 19:00:00 12.8 9 Oeste 21 Oeste 0 -- -- 65
2019-11-27 18:00:00 13.3 2 Sur 30 Oeste 0 -- -- 59
2019-11-27 17:00:00 14.1 10 Oeste 37 Oeste 0 -- -- 57
2019-11-27 16:00:00 14.3 22 Oeste 45 Oeste 0 -- -- 57
2019-11-27 15:00:00 14.7 14 Oeste 44 Oeste 0 -- -- 55
2019-11-27 14:00:00 14.6 21 Oeste 54 Oeste 0 -- -- 56
2019-11-27 06:00:00 -- -- -- -- -- -- -- -- --
2019-11-27 05:00:00 12.3 21 Oeste 34 Oeste 0 -- -- 62
2019-11-27 04:00:00 12.8 23 Oeste 53 Oeste 0 -- -- 62
2019-11-27 03:00:00 13.5 28 Oeste 54 Noroeste 0 -- -- 65
2019-11-27 02:00:00 13.5 21 Oeste 47 Oeste 0 -- -- 71
2019-11-27 01:00:00 14.6 20 Oeste 42 Sudoeste 0 -- -- 68
2019-11-27 00:00:00 14.5 4 Noroeste 19 Oeste 0 -- -- 75
2019-11-26 23:00:00 15 11 Oeste 37 Sudoeste 0 -- -- 77
2019-11-26 22:00:00 16.5 13 Sudoeste 32 Oeste 0 -- -- 65
2019-11-26 21:00:00 16.5 9 Sudoeste 24 Sudoeste 0 -- -- 63
2019-11-26 20:00:00 16.4 12 Sur 25 Sudoeste 0 -- -- 64
2019-11-26 19:00:00 16.5 13 Sur 29 Sur 0 -- -- 63
2019-11-26 18:00:00 16.1 14 Sur 38 Sur 0 -- -- 64
2019-11-26 17:00:00 17.1 13 Sudoeste 27 Sur 0 -- -- 62
2019-11-26 16:00:00 16.3 3 Noroeste 13 Sudeste 0 -- -- 67
2019-11-26 15:00:00 17 5 Sudeste 12 Sudeste 0 -- -- 59
2019-11-26 14:00:00 16.9 9 Sudeste 25 Sudeste 0 -- -- 58
2019-11-26 13:00:00 15.9 12 Sudeste 24 Nordeste 0 -- -- 65
2019-11-26 12:00:00 16.4 7 Sur 19 Este 0 -- -- 61
2019-11-26 11:00:00 15.2 8 Sudeste 18 Noroeste 0 -- -- 64
2019-11-26 10:00:00 12.4 0 Calma 16 Sur 0 -- -- 70
2019-11-26 09:00:00 9.1 6 Norte 17 Oeste 0 -- -- 81
2019-11-26 08:00:00 8.9 4 Sur 13 Sur 0 -- -- 79
2019-11-26 07:00:00 10.7 8 Sur 19 Este 0 -- -- 72
2019-11-26 06:00:00 10.9 3 Sur 32 Oeste 0 -- -- 71
2019-11-26 05:00:00 12.6 15 Sudoeste 37 Sudoeste 0 -- -- 67
2019-11-26 04:00:00 11.7 7 Sudeste 26 Sur 0 -- -- 71
2019-11-26 03:00:00 12.3 10 Sudoeste 37 Oeste 0 -- -- 69
2019-11-26 02:00:00 13.7 17 Sudoeste 43 Sudoeste 0 -- -- 61
2019-11-26 01:00:00 13.6 15 Sudoeste 35 Sudoeste 0 -- -- 62
2019-11-26 00:00:00 13.3 10 Sudoeste 33 Sudoeste 0 -- -- 63
2019-11-25 23:00:00 13.2 14 Oeste 35 Oeste 0 -- -- 65
2019-11-25 22:00:00 12.9 12 Oeste 34 Oeste 0 -- -- 67
2019-11-25 21:00:00 12.7 10 Oeste 24 Oeste 0 -- -- 68
2019-11-25 20:00:00 12 10 Oeste 23 Oeste 0 -- -- 74
2019-11-25 19:00:00 9.8 4 Sudoeste 10 Sudoeste 0 -- -- 85
2019-11-25 18:00:00 10.9 4 Sudoeste 8 Oeste 0 -- -- 82
2019-11-25 17:00:00 12.4 3 Oeste 11 Oeste 0 -- -- 78
2019-11-25 16:00:00 13.6 4 Este 16 Nordeste 0 -- -- 71
2019-11-25 15:00:00 12.8 9 Nordeste 15 Nordeste 0 -- -- 73
2019-11-25 14:00:00 13.1 6 Este 16 Nordeste 0 -- -- 71
2019-11-25 13:00:00 12.4 12 Nordeste 19 Nordeste 0 -- -- 72
2019-11-25 12:00:00 11.7 10 Nordeste 21 Nordeste 0 -- -- 72
2019-11-25 11:00:00 10.4 2 Sudeste 8 Sudeste 0 -- -- 77
2019-11-25 10:00:00 7.7 2 Este 9 Este 0 -- -- 89
2019-11-25 09:00:00 5.7 4 Sudeste 10 Este 0 -- -- 93
2019-11-25 08:00:00 5.3 4 Este 12 Este 0 -- -- 91
2019-11-25 07:00:00 6.9 7 Este 30 Noroeste 0 -- -- 84
2019-11-25 06:00:00 11.8 17 Oeste 31 Oeste 0 -- -- 73
2019-11-25 05:00:00 11 17 Oeste 32 Oeste 0 -- -- 74
2019-11-25 04:00:00 10.2 18 Oeste 28 Oeste 0 -- -- 75
2019-11-25 03:00:00 9 6 Sudeste 27 Sudoeste 0.2 -- -- 81
2019-11-25 02:00:00 10.8 14 Oeste 33 Oeste 0 -- -- 73
2019-11-25 01:00:00 10.8 4 Noroeste 31 Oeste 0 -- -- 72
2019-11-25 00:00:00 10.1 12 Oeste 33 Oeste 0 -- -- 73
2019-11-24 23:00:00 10.6 13 Oeste 42 Oeste 0 -- -- 72
2019-11-24 22:00:00 11.1 18 Oeste 45 Oeste 0 -- -- 63
2019-11-24 21:00:00 10.7 15 Oeste 39 Sudoeste 0 -- -- 63
2019-11-24 20:00:00 10.3 10 Oeste 40 Sudoeste 0 -- -- 62
2019-11-24 19:00:00 10.3 18 Oeste 39 Oeste 0 -- -- 56
2019-11-24 18:00:00 9.8 15 Oeste 45 Oeste 0 -- -- 59
2019-11-24 17:00:00 10.1 22 Oeste 45 Oeste 0 -- -- 59
2019-11-24 16:00:00 10.6 17 Oeste 39 Oeste 0 -- -- 61
2019-11-24 15:00:00 12.5 17 Oeste 39 Sudoeste 0 -- -- 55
2019-11-24 14:00:00 11.4 13 Oeste 26 Oeste 0 -- -- 59
2019-11-24 13:00:00 10.6 12 Oeste 27 Oeste 0 -- -- 61
2019-11-24 12:00:00 10.4 13 Oeste 26 Oeste 0 -- -- 59
2019-11-24 11:00:00 9.6 11 Oeste 27 Noroeste 0 -- -- 61
2019-11-24 10:00:00 8.4 13 Oeste 24 Oeste 0 -- -- 65
2019-11-24 09:00:00 6.8 10 Oeste 21 Oeste 0 -- -- 70
2019-11-24 08:00:00 4.8 9 Oeste 14 Oeste 0 -- -- 77
2019-11-24 07:00:00 5.7 9 Oeste 15 Noroeste 0 -- -- 73
2019-11-24 06:00:00 6.6 9 Oeste 20 Oeste 0 -- -- 69
2019-11-24 05:00:00 6.8 12 Oeste 22 Oeste 0 -- -- 71
2019-11-24 04:00:00 7.4 12 Oeste 26 Noroeste 0 -- -- 68
2019-11-24 03:00:00 7.9 13 Oeste 23 Noroeste 0 -- -- 67
2019-11-24 02:00:00 8 5 Noroeste 22 Oeste 0 -- -- 68
2019-11-24 01:00:00 9 12 Noroeste 24 Noroeste 0 -- -- 65
2019-11-24 00:00:00 9 17 Oeste 26 Oeste 0 -- -- 64
2019-11-23 23:00:00 6.9 4 Norte 21 Oeste 0 -- -- 74
2019-11-23 22:00:00 8.3 11 Noroeste 26 Noroeste 0 -- -- 70
2019-11-23 21:00:00 8.2 8 Noroeste 24 Noroeste 0 -- -- 70
2019-11-23 20:00:00 8.3 9 Noroeste 26 Noroeste 0 -- -- 67
2019-11-23 19:00:00 8.9 10 Noroeste 31 Noroeste 0 -- -- 64
2019-11-23 18:00:00 10 18 Noroeste 42 Noroeste 0 -- -- 58
2019-11-23 17:00:00 10.9 24 Noroeste 50 Noroeste 0 -- -- 52
2019-11-23 16:00:00 11.7 22 Noroeste 56 Noroeste 0 -- -- 52
2019-11-23 15:00:00 13 25 Noroeste 48 Noroeste 0 -- -- 47
2019-11-23 14:00:00 11.1 20 Noroeste 49 Noroeste 0 -- -- 52
2019-11-23 13:00:00 10.9 23 Noroeste 50 Noroeste 0 -- -- 51
2019-11-23 12:00:00 10.8 27 Noroeste 44 Noroeste 0 -- -- 53
2019-11-23 11:00:00 9.5 24 Noroeste 42 Noroeste 0 -- -- 65
2019-11-23 10:00:00 9.1 24 Oeste 44 Oeste 0 -- -- 66
2019-11-23 09:00:00 8.8 16 Oeste 35 Oeste 0 -- -- 69
2019-11-23 08:00:00 8.4 19 Oeste 37 Oeste 0 -- -- 71
2019-11-23 07:00:00 7.7 10 Oeste 37 Oeste 0.2 -- -- 78
2019-11-23 06:00:00 9 21 Oeste 49 Sudoeste 0 -- -- 70
2019-11-23 05:00:00 9.2 25 Oeste 53 Oeste 0 -- -- 69
2019-11-23 04:00:00 10.2 25 Oeste 57 Oeste 0 -- -- 66
2019-11-23 03:00:00 10.7 21 Oeste 46 Sudoeste 0 -- -- 66
2019-11-23 02:00:00 11 17 Oeste 63 Oeste 0 -- -- 66
2019-11-23 01:00:00 11.3 25 Oeste 60 Oeste 0.2 -- -- 67
2019-11-23 00:00:00 11.2 23 Oeste 50 Oeste 0 -- -- 66
2019-11-22 23:00:00 10.6 17 Oeste 51 Oeste 0 -- -- 72
2019-11-22 22:00:00 10.7 14 Sudoeste 33 Sudoeste 0 -- -- 75
2019-11-22 21:00:00 10 14 Sudoeste 46 Sudoeste 2.4 -- -- 83
2019-11-22 20:00:00 10.5 15 Oeste 43 Oeste 0 -- -- 82
2019-11-22 19:00:00 8.5 8 Noroeste 27 Sudeste 0 -- -- 94
2019-11-22 18:00:00 8.6 13 Sudeste 45 Este 0 -- -- 94
2019-11-22 17:00:00 8.6 8 Este 30 Sur 0.8 -- -- 92
2019-11-22 16:00:00 8 11 Sudeste 33 Este 0.4 -- -- 92
2019-11-22 15:00:00 8.2 20 Este 33 Sudeste 0 -- -- 86
2019-11-22 14:00:00 9.3 18 Sur 37 Sudeste 0 -- -- 83
2019-11-22 13:00:00 9 14 Sudeste 39 Sudeste 0 -- -- 82
2019-11-22 12:00:00 9.4 21 Sudeste 44 Sur 0 -- -- 76
2019-11-22 11:00:00 9.5 21 Sudeste 51 Sudeste 0 -- -- 72
2019-11-22 10:00:00 10.3 23 Sudeste 52 Sudeste 0 -- -- 68
2019-11-22 09:00:00 9.1 19 Sudoeste 37 Sur 0 -- -- 75
2019-11-22 08:00:00 5.4 8 Noroeste 18 Oeste 0 -- -- 91
2019-11-22 07:00:00 4.7 5 Norte 9 Norte 0 -- -- 92
2019-11-22 06:00:00 4.9 4 Noroeste 12 Nordeste 0 -- -- 89
2019-11-22 05:00:00 4.5 7 Oeste 12 Oeste 0 -- -- 90
2019-11-22 04:00:00 4.7 3 Norte 13 Oeste 0 -- -- 88
2019-11-22 03:00:00 5 5 Oeste 11 Oeste 0 -- -- 86
2019-11-22 02:00:00 4.7 3 Sudoeste 14 Noroeste 0 -- -- 87
2019-11-22 01:00:00 5 3 Sur 13 Oeste 0 -- -- 86
2019-11-22 00:00:00 4.5 7 Noroeste 11 Noroeste 0 -- -- 86
2019-11-21 23:00:00 5.3 7 Sudoeste 14 Sur 0 -- -- 84
2019-11-21 22:00:00 6.2 2 Oeste 11 Oeste 0 -- -- 80
2019-11-21 21:00:00 7.5 4 Sudoeste 14 Oeste 0 -- -- 76
2019-11-21 20:00:00 8.1 12 Oeste 18 Oeste 0 -- -- 74
2019-11-21 19:00:00 9.1 9 Oeste 18 Oeste 0 -- -- 69
2019-11-21 18:00:00 9.9 2 Sudoeste 30 Sudoeste 0 -- -- 68
2019-11-21 17:00:00 11 7 Oeste 17 Sudoeste 0 -- -- 68
2019-11-21 16:00:00 12.7 5 Sudoeste 22 Oeste 0 -- -- 56
2019-11-21 15:00:00 12.7 12 Sudoeste 27 Sudoeste 0 -- -- 58
2019-11-21 14:00:00 10.7 8 Este 15 Este 0 -- -- 69
2019-11-21 13:00:00 10.6 9 Este 25 Sudoeste 0 -- -- 71
2019-11-21 12:00:00 12.3 12 Oeste 32 Oeste 0 -- -- 60
2019-11-21 11:00:00 9.5 4 Sur 19 Este 0 -- -- 74
2019-11-21 10:00:00 6.8 5 Este 12 Sudoeste 0 -- -- 87
2019-11-21 09:00:00 4.6 6 Oeste 12 Sur 0 -- -- 94
2019-11-21 08:00:00 -- -- -- -- -- -- -- -- --
2019-11-21 07:00:00 -- -- -- -- -- -- -- -- --
2019-11-21 06:00:00 -- -- -- -- -- -- -- -- --
2019-11-21 05:00:00 -- -- -- -- -- -- -- -- --
2019-11-21 04:00:00 -- -- -- -- -- -- -- -- --
2019-11-21 03:00:00 -- -- -- -- -- -- -- -- --
2019-11-21 02:00:00 -- -- -- -- -- -- -- -- --
2019-11-21 01:00:00 -- -- -- -- -- -- -- -- --
2019-11-21 00:00:00 -- -- -- -- -- -- -- -- --
2019-11-20 23:00:00 -- -- -- -- -- -- -- -- --
2019-11-20 22:00:00 -- -- -- -- -- -- -- -- --
2019-11-20 21:00:00 -- -- -- -- -- -- -- -- --
2019-11-20 20:00:00 -- -- -- -- -- -- -- -- --
2019-11-20 19:00:00 7.8 0 Calma 15 Sudeste 0 -- -- 71
2019-11-20 18:00:00 8.3 7 Sudeste 16 Sudeste 0 -- -- 68
2019-11-20 17:00:00 9.1 4 Sudeste 13 Sudeste 0 -- -- 68
2019-11-20 16:00:00 9.3 8 Este 15 Este 0 -- -- 72
2019-11-20 15:00:00 8.9 5 Nordeste 12 Nordeste 0 -- -- 74
2019-11-20 14:00:00 9 5 Norte 13 Nordeste 0 -- -- 69
2019-11-20 13:00:00 7.3 6 Nordeste 13 Nordeste 0 -- -- 75
2019-11-20 12:00:00 6.4 4 Este 9 Norte 0 -- -- 79
2019-11-20 11:00:00 4.1 3 Nordeste 8 Nordeste 0 -- -- 88
2019-11-20 10:00:00 2.2 3 Este 5 Sudeste 0 -- -- 94
2019-11-20 09:00:00 0 0 Calma 10 Oeste 0 -- -- 94
2019-11-20 08:00:00 0.1 0 Calma 9 Oeste 0 -- -- 94
2019-11-20 07:00:00 0.4 4 Oeste 8 Oeste 0 -- -- 93
2019-11-20 06:00:00 0.8 0 Calma 5 Noroeste 0 -- -- 92
2019-11-20 05:00:00 1.2 0 Calma 8 Oeste 0 -- -- 91
2019-11-20 04:00:00 1.6 2 Sudoeste 7 Noroeste 0 -- -- 90
2019-11-20 03:00:00 2 0 Calma 10 Oeste 0 -- -- 89
2019-11-20 02:00:00 2.4 4 Oeste 12 Oeste 0 -- -- 88
2019-11-20 01:00:00 2.6 6 Oeste 11 Noroeste 0 -- -- 86
2019-11-20 00:00:00 3.1 3 Sudoeste 12 Oeste 0 -- -- 86
2019-11-19 23:00:00 4 4 Oeste 9 Oeste 0 -- -- 83
2019-11-19 22:00:00 4.4 8 Oeste 12 Oeste 0 -- -- 82
2019-11-19 21:00:00 4.4 5 Oeste 11 Oeste 0 -- -- 82
2019-11-19 20:00:00 4.9 5 Oeste 9 Sudoeste 0 -- -- 82
2019-11-19 19:00:00 5.2 4 Oeste 10 Oeste 0 -- -- 80
2019-11-19 18:00:00 8.3 0 Calma 10 Nordeste 0 -- -- 66
2019-11-19 17:00:00 9.9 6 Nordeste 12 Nordeste 0 -- -- 61
2019-11-19 16:00:00 10.6 7 Nordeste 17 Nordeste 0 -- -- 58
2019-11-19 15:00:00 11.4 7 Norte 18 Norte 0 -- -- 54
2019-11-19 14:00:00 11.3 11 Norte 23 Norte 0 -- -- 53
2019-11-19 13:00:00 11.5 10 Noroeste 24 Noroeste 0 -- -- 53
2019-11-19 12:00:00 10.6 15 Noroeste 27 Oeste 0 -- -- 55
2019-11-19 11:00:00 9.5 14 Noroeste 30 Oeste 0 -- -- 61
2019-11-19 10:00:00 7.6 6 Oeste 21 Oeste 0 -- -- 68
2019-11-19 09:00:00 3.1 3 Nordeste 15 Oeste 0 -- -- 82
2019-11-19 08:00:00 2.7 6 Oeste 19 Noroeste 0 -- -- 81
2019-11-19 07:00:00 2.7 9 Oeste 16 Oeste 0 -- -- 84
2019-11-19 06:00:00 2.8 11 Oeste 17 Oeste 0 -- -- 83
2019-11-19 05:00:00 2.3 7 Oeste 14 Oeste 0 -- -- 84
2019-11-19 04:00:00 2.2 6 Oeste 12 Oeste 0 -- -- 86
2019-11-19 03:00:00 3 3 Sudoeste 14 Oeste 0 -- -- 82
2019-11-19 02:00:00 3.3 9 Oeste 17 Oeste 0 -- -- 83
2019-11-19 01:00:00 4 10 Oeste 15 Oeste 0 -- -- 80
2019-11-19 00:00:00 4.9 10 Noroeste 16 Noroeste 0 -- -- 79
2019-11-18 23:00:00 5.4 10 Oeste 16 Oeste 0 -- -- 77
2019-11-18 22:00:00 5.5 10 Oeste 23 Noroeste 0 -- -- 75
2019-11-18 21:00:00 6.3 13 Noroeste 24 Noroeste 0 -- -- 73
2019-11-18 20:00:00 5.7 12 Oeste 19 Noroeste 0 -- -- 74
2019-11-18 19:00:00 6.3 13 Noroeste 27 Noroeste 0 -- -- 75
2019-11-18 18:00:00 6.5 12 Noroeste 30 Noroeste 0 -- -- 76
2019-11-18 17:00:00 7 9 Norte 26 Norte 0 -- -- 79
2019-11-18 16:00:00 7.1 14 Norte 30 Norte 0 -- -- 80
2019-11-18 15:00:00 7.7 21 Norte 43 Noroeste 0 -- -- 76
2019-11-18 14:00:00 7.5 19 Noroeste 31 Norte 0 -- -- 80
2019-11-18 13:00:00 6.3 14 Noroeste 28 Norte 0 -- -- 86
2019-11-18 12:00:00 7.1 15 Norte 35 Norte 0 -- -- 77
2019-11-18 11:00:00 8.5 21 Norte 44 Noroeste 0 -- -- 66
2019-11-18 10:00:00 6.9 15 Noroeste 31 Noroeste 0 -- -- 70
2019-11-18 09:00:00 6.4 9 Noroeste 22 Oeste 0 -- -- 73
2019-11-18 08:00:00 6.1 10 Noroeste 24 Norte 0 -- -- 75
2019-11-18 07:00:00 6.1 15 Noroeste 30 Noroeste 0 -- -- 79
2019-11-18 06:00:00 5.6 8 Oeste 22 Noroeste 0 -- -- 76
2019-11-18 05:00:00 6.7 12 Noroeste 27 Noroeste 0 -- -- 75
2019-11-18 04:00:00 6.8 11 Noroeste 22 Noroeste 0 -- -- 78
2019-11-18 03:00:00 6.4 9 Noroeste 15 Norte 0 -- -- 81
2019-11-18 02:00:00 6.1 7 Oeste 10 Oeste 0 -- -- 88
2019-11-18 01:00:00 6.1 4 Sudeste 21 Norte 0 -- -- 89
2019-11-18 00:00:00 5.3 8 Oeste 16 Oeste 0 -- -- 92
2019-11-17 23:00:00 4.4 4 Oeste 13 Oeste 0 -- -- 93
2019-11-17 22:00:00 5.4 0 Calma 12 Sudoeste 0 -- -- 92
2019-11-17 21:00:00 6.7 4 Sudoeste 8 Sudoeste 0 -- -- 91
2019-11-17 20:00:00 7.1 5 Noroeste 8 Oeste 0 -- -- 90
2019-11-17 19:00:00 7.2 2 Oeste 9 Sudeste 0 -- -- 89
2019-11-17 18:00:00 7.4 4 Sudeste 10 Nordeste 0 -- -- 90
2019-11-17 17:00:00 7.8 5 Nordeste 14 Norte 0 -- -- 88
2019-11-17 16:00:00 8.3 7 Norte 21 Noroeste 0 -- -- 80
2019-11-17 15:00:00 9.1 9 Noroeste 41 Oeste 0.2 -- -- 78
2019-11-17 14:00:00 10.6 15 Oeste 42 Sudoeste 0 -- -- 66
2019-11-17 13:00:00 10.7 19 Oeste 47 Noroeste 0 -- -- 63
2019-11-17 12:00:00 8.9 19 Oeste 50 Oeste 0 -- -- 67
2019-11-17 11:00:00 9 22 Oeste 50 Oeste 0 -- -- 65
2019-11-17 10:00:00 7.8 19 Oeste 46 Oeste 0 -- -- 69
2019-11-17 09:00:00 7.1 17 Oeste 39 Oeste 0 -- -- 70
2019-11-17 08:00:00 6.7 9 Oeste 28 Oeste 0 -- -- 68
2019-11-17 07:00:00 6.9 14 Oeste 32 Oeste 0 -- -- 65
2019-11-17 06:00:00 6.6 14 Oeste 36 Oeste 0 -- -- 65
2019-11-17 05:00:00 6 15 Oeste 39 Oeste 0 -- -- 66
2019-11-17 04:00:00 5.5 11 Oeste 32 Oeste 0 -- -- 65
2019-11-17 03:00:00 6.1 17 Oeste 32 Oeste 0 -- -- 61
2019-11-17 02:00:00 5.7 14 Oeste 28 Sudoeste 0 -- -- 64
2019-11-17 01:00:00 5.6 14 Oeste 28 Oeste 0 -- -- 66
2019-11-17 00:00:00 5.5 12 Oeste 28 Oeste 0 -- -- 67
2019-11-16 23:00:00 6 10 Oeste 27 Oeste 0 -- -- 68
2019-11-16 22:00:00 6.2 13 Oeste 25 Oeste 0 -- -- 69
2019-11-16 21:00:00 6.5 8 Oeste 27 Noroeste 0 -- -- 71
2019-11-16 20:00:00 6.9 13 Oeste 24 Oeste 0 -- -- 69
2019-11-16 19:00:00 6.9 13 Oeste 29 Oeste 0 -- -- 69
2019-11-16 18:00:00 6.9 14 Oeste 33 Oeste 0 -- -- 67
2019-11-16 17:00:00 8.1 9 Oeste 37 Oeste 0 -- -- 62
2019-11-16 16:00:00 7.9 15 Oeste 37 Oeste 0 -- -- 61
2019-11-16 15:00:00 7.6 18 Oeste 36 Oeste 0 -- -- 61
2019-11-16 14:00:00 8.3 15 Oeste 35 Oeste 0 -- -- 57
2019-11-16 13:00:00 8.4 18 Oeste 32 Oeste 0 -- -- 59
2019-11-16 12:00:00 8.5 12 Oeste 25 Oeste 0 -- -- 56
2019-11-16 11:00:00 7.8 10 Oeste 25 Oeste 0 -- -- 56
2019-11-16 10:00:00 6.1 14 Oeste 23 Oeste 0 -- -- 61
2019-11-16 09:00:00 3.9 6 Oeste 17 Oeste 0 -- -- 72
2019-11-16 08:00:00 1.7 9 Oeste 18 Oeste 0 -- -- 77
2019-11-16 07:00:00 1.6 10 Oeste 19 Oeste 0 -- -- 79
2019-11-16 06:00:00 1.1 8 Oeste 16 Oeste 0 -- -- 83
2019-11-16 05:00:00 1.2 5 Oeste 12 Oeste 0 -- -- 85
2019-11-16 04:00:00 1.7 4 Oeste 13 Noroeste 0 -- -- 83
2019-11-16 03:00:00 1.4 9 Oeste 16 Oeste 0 -- -- 86
2019-11-16 02:00:00 1.8 10 Oeste 15 Oeste 0 -- -- 86
2019-11-16 01:00:00 2.1 5 Oeste 12 Oeste 0 -- -- 86
2019-11-16 00:00:00 3 6 Oeste 10 Oeste 0 -- -- 85
2019-11-15 23:00:00 3.7 8 Oeste 13 Oeste 0 -- -- 85
2019-11-15 22:00:00 4.4 7 Norte 13 Norte 0 -- -- 85
2019-11-15 21:00:00 5.1 3 Noroeste 15 Noroeste 0 -- -- 83
2019-11-15 20:00:00 5.3 5 Norte 13 Este 0 -- -- 81
2019-11-15 19:00:00 6 2 Sudeste 9 Oeste 0 -- -- 75
2019-11-15 18:00:00 6.4 9 Noroeste 25 Noroeste 0 -- -- 70
2019-11-15 17:00:00 7.5 13 Noroeste 37 Noroeste 0 -- -- 65
2019-11-15 16:00:00 8.8 19 Noroeste 41 Norte 0 -- -- 58
2019-11-15 15:00:00 10 20 Noroeste 37 Oeste 0 -- -- 57
2019-11-15 14:00:00 8.7 23 Noroeste 44 Noroeste 0 -- -- 62
2019-11-15 13:00:00 9.3 18 Noroeste 38 Oeste 0 -- -- 63
2019-11-15 12:00:00 9.3 19 Oeste 39 Oeste 0 -- -- 60
2019-11-15 11:00:00 8.1 16 Oeste 36 Oeste 0 -- -- 62
2019-11-15 10:00:00 6.8 15 Oeste 33 Oeste 0 -- -- 67
2019-11-15 09:00:00 6.1 15 Oeste 32 Oeste 0 -- -- 68
2019-11-15 08:00:00 5.3 9 Oeste 22 Sudoeste 0 -- -- 70
2019-11-15 07:00:00 5.1 9 Oeste 34 Oeste 0 -- -- 70
2019-11-15 06:00:00 4.7 13 Oeste 31 Oeste 0 -- -- 69
2019-11-15 05:00:00 3.4 6 Oeste 13 Oeste 0 -- -- 80
2019-11-15 04:00:00 3.6 9 Oeste 15 Oeste 0 -- -- 82
2019-11-15 03:00:00 5.1 6 Oeste 14 Oeste 0 -- -- 77
2019-11-15 02:00:00 5.2 9 Noroeste 14 Noroeste 0 -- -- 76
2019-11-15 01:00:00 5.1 4 Noroeste 11 Oeste 0 -- -- 77
2019-11-15 00:00:00 5.4 7 Oeste 12 Oeste 0 -- -- 76
2019-11-14 23:00:00 5.4 4 Oeste 10 Oeste 0 -- -- 79
2019-11-14 22:00:00 5.6 7 Noroeste 19 Norte 0 -- -- 78
2019-11-14 21:00:00 5.9 11 Noroeste 27 Oeste 0 -- -- 75
2019-11-14 20:00:00 6.1 13 Oeste 29 Oeste 0 -- -- 74
2019-11-14 19:00:00 5.8 15 Oeste 35 Oeste 0 -- -- 75
2019-11-14 18:00:00 7.5 16 Oeste 24 Noroeste 0 -- -- 64
2019-11-14 17:00:00 8.6 5 Oeste 30 Oeste 0 -- -- 55
2019-11-14 16:00:00 9.7 18 Oeste 37 Oeste 0 -- -- 49
2019-11-14 15:00:00 9.9 18 Oeste 54 Oeste 0 -- -- 51
2019-11-14 14:00:00 10.3 23 Oeste 55 Oeste 0 -- -- 50
2019-11-14 13:00:00 10.8 14 Oeste 31 Sudoeste 0 -- -- 58
2019-11-14 12:00:00 7.4 4 Este 13 Este 0 -- -- 78
2019-11-14 11:00:00 5.2 0 Calma 6 Nordeste 0 -- -- 89
2019-11-14 10:00:00 4.6 2 Norte 12 Noroeste 0 -- -- 90
2019-11-14 09:00:00 4.2 4 Sudoeste 19 Noroeste 0.2 -- -- 91
2019-11-14 08:00:00 4.5 10 Noroeste 26 Noroeste 0.4 -- -- 89
2019-11-14 07:00:00 4.6 15 Noroeste 52 Noroeste 3.2 -- -- 89
2019-11-14 06:00:00 6.1 28 Norte 54 Noroeste 1.2 -- -- 83
2019-11-14 05:00:00 10.8 20 Oeste 48 Oeste 0 -- -- 64
2019-11-14 04:00:00 11.1 22 Oeste 49 Oeste 0 -- -- 61
2019-11-14 03:00:00 11.2 23 Oeste 49 Oeste 0 -- -- 60
2019-11-14 02:00:00 11.6 21 Noroeste 49 Oeste 0 -- -- 59
2019-11-14 01:00:00 12.1 28 Oeste 52 Oeste 0 -- -- 59
2019-11-14 00:00:00 12.3 25 Oeste 65 Oeste 0 -- -- 64
2019-11-13 23:00:00 12.6 28 Oeste 57 Sudoeste 0 -- -- 65
2019-11-13 22:00:00 11.7 6 Sudoeste 22 Oeste 0 -- -- 66
2019-11-13 21:00:00 6.4 4 Sur 14 Oeste 0 -- -- 88
2019-11-13 20:00:00 6.3 8 Oeste 15 Oeste 0 -- -- 87
2019-11-13 19:00:00 7.2 4 Sudoeste 9 Oeste 0 -- -- 83
2019-11-13 18:00:00 9.6 2 Oeste 14 Norte 0 -- -- 74
2019-11-13 17:00:00 11.7 12 Norte 22 Norte 0 -- -- 64
2019-11-13 16:00:00 12.2 13 Norte 30 Norte 0 -- -- 65
2019-11-13 15:00:00 13.5 19 Norte 39 Norte 0 -- -- 59
2019-11-13 14:00:00 12.9 18 Noroeste 47 Norte 0 -- -- 56
2019-11-13 13:00:00 12.1 17 Noroeste 39 Noroeste 0 -- -- 62
2019-11-13 12:00:00 11.3 15 Noroeste 28 Noroeste 0 -- -- 72
2019-11-13 11:00:00 10.4 15 Noroeste 31 Noroeste 0 -- -- 76
2019-11-13 10:00:00 9.6 13 Oeste 27 Oeste 0 -- -- 84
2019-11-13 09:00:00 8.6 14 Noroeste 26 Noroeste 0 -- -- 87
2019-11-13 08:00:00 7.7 13 Noroeste 21 Noroeste 0.2 -- -- 93
2019-11-13 07:00:00 7.2 8 Noroeste 20 Noroeste 1.8 -- -- 95
2019-11-13 06:00:00 7.3 7 Norte 15 Norte 1.6 -- -- 95
2019-11-13 05:00:00 7.3 0 Calma 5 Oeste 0.8 -- -- 94
2019-11-13 04:00:00 7.4 4 Nordeste 9 Nordeste 0.6 -- -- 93
2019-11-13 03:00:00 8 4 Sur 17 Sudoeste 0.4 -- -- 88
2019-11-13 02:00:00 8.9 7 Sur 15 Sur 0 -- -- 80
2019-11-13 01:00:00 9.8 10 Oeste 27 Noroeste 0 -- -- 76
2019-11-13 00:00:00 9.5 17 Oeste 30 Oeste 0 -- -- 77
2019-11-12 23:00:00 8.7 17 Noroeste 32 Noroeste 0.2 -- -- 79
2019-11-12 22:00:00 8.3 13 Noroeste 33 Oeste 0.6 -- -- 82
2019-11-12 21:00:00 9.9 15 Oeste 32 Oeste 0 -- -- 72
2019-11-12 20:00:00 10.6 17 Oeste 36 Oeste 0 -- -- 65
2019-11-12 19:00:00 9.8 14 Oeste 29 Oeste 0 -- -- 68
2019-11-12 18:00:00 10 5 Oeste 13 Sudoeste 0 -- -- 69
2019-11-12 17:00:00 11 3 Oeste 22 Norte 0 -- -- 65
2019-11-12 16:00:00 12.4 12 Norte 28 Norte 0 -- -- 58
2019-11-12 15:00:00 12.6 14 Norte 30 Norte 0 -- -- 57
2019-11-12 14:00:00 12.8 14 Norte 32 Noroeste 0 -- -- 53
2019-11-12 13:00:00 13 18 Noroeste 35 Noroeste 0 -- -- 54
2019-11-12 12:00:00 11.3 19 Noroeste 35 Noroeste 0 -- -- 60
2019-11-12 11:00:00 10.5 14 Noroeste 31 Noroeste 0 -- -- 61
2019-11-12 10:00:00 9.5 13 Noroeste 27 Noroeste 0 -- -- 66
2019-11-12 09:00:00 8.4 11 Noroeste 15 Noroeste 0 -- -- 71
2019-11-12 08:00:00 7.6 8 Noroeste 17 Noroeste 0 -- -- 74
2019-11-12 07:00:00 7.8 14 Noroeste 25 Noroeste 0 -- -- 72
2019-11-12 06:00:00 7.4 10 Noroeste 20 Noroeste 0 -- -- 74
2019-11-12 05:00:00 7.2 12 Noroeste 21 Noroeste 0 -- -- 74
2019-11-12 04:00:00 6.8 8 Oeste 21 Oeste 0 -- -- 75
2019-11-12 03:00:00 6.5 10 Oeste 23 Oeste 0 -- -- 75
2019-11-12 02:00:00 6.3 13 Oeste 21 Noroeste 0 -- -- 74
2019-11-12 01:00:00 6.2 8 Oeste 26 Oeste 0 -- -- 76
2019-11-12 00:00:00 7.2 16 Noroeste 34 Noroeste 0 -- -- 72